sensor_id;sensor_type;location;lat;lon;timestamp;pressure;altitude;pressure_sealevel;temperature;humidity
23281;BME280;11809;56.390;-3.266;2023-05-23T00:02:16;102373.31;;;17.96;61.35
23281;BME280;11809;56.390;-3.266;2023-05-23T00:04:43;102380.47;;;17.96;61.33
23281;BME280;11809;56.390;-3.266;2023-05-23T00:07:10;102364.63;;;17.93;61.47
23281;BME280;11809;56.390;-3.266;2023-05-23T00:09:37;102376.13;;;17.93;61.26
23281;BME280;11809;56.390;-3.266;2023-05-23T00:12:04;102377.94;;;17.93;61.30
23281;BME280;11809;56.390;-3.266;2023-05-23T00:14:31;102387.78;;;17.91;61.28
23281;BME280;11809;56.390;-3.266;2023-05-23T00:16:59;102375.47;;;17.88;61.45
23281;BME280;11809;56.390;-3.266;2023-05-23T00:19:27;102384.28;;;17.89;61.41
23281;BME280;11809;56.390;-3.266;2023-05-23T00:21:54;102372.88;;;17.87;61.47
23281;BME280;11809;56.390;-3.266;2023-05-23T00:24:24;102375.59;;;17.85;61.43
23281;BME280;11809;56.390;-3.266;2023-05-23T00:26:51;102377.41;;;17.85;61.29
23281;BME280;11809;56.390;-3.266;2023-05-23T00:29:18;102375.78;;;17.81;61.41
23281;BME280;11809;56.390;-3.266;2023-05-23T00:31:45;102375.00;;;17.79;61.24
23281;BME280;11809;56.390;-3.266;2023-05-23T00:34:15;102368.75;;;17.80;61.23
23281;BME280;11809;56.390;-3.266;2023-05-23T00:36:45;102368.78;;;17.78;61.38
23281;BME280;11809;56.390;-3.266;2023-05-23T00:39:16;102368.88;;;17.77;61.22
23281;BME280;11809;56.390;-3.266;2023-05-23T00:41:49;102365.44;;;17.75;61.27
23281;BME280;11809;56.390;-3.266;2023-05-23T00:44:18;102361.03;;;17.74;61.26
23281;BME280;11809;56.390;-3.266;2023-05-23T00:46:46;102369.91;;;17.73;61.27
23281;BME280;11809;56.390;-3.266;2023-05-23T00:49:15;102376.09;;;17.73;61.28
23281;BME280;11809;56.390;-3.266;2023-05-23T00:51:45;102380.56;;;17.73;61.29
23281;BME280;11809;56.390;-3.266;2023-05-23T00:54:12;102373.53;;;17.72;61.24
23281;BME280;11809;56.390;-3.266;2023-05-23T00:56:40;102375.41;;;17.70;61.41
23281;BME280;11809;56.390;-3.266;2023-05-23T00:59:09;102378.06;;;17.70;61.27
23281;BME280;11809;56.390;-3.266;2023-05-23T01:01:36;102372.75;;;17.70;61.24
23281;BME280;11809;56.390;-3.266;2023-05-23T01:04:03;102368.34;;;17.69;61.39
23281;BME280;11809;56.390;-3.266;2023-05-23T01:06:30;102371.91;;;17.68;61.32
23281;BME280;11809;56.390;-3.266;2023-05-23T01:08:58;102380.84;;;17.67;61.40
23281;BME280;11809;56.390;-3.266;2023-05-23T01:11:37;102376.34;;;17.67;61.38
23281;BME280;11809;56.390;-3.266;2023-05-23T01:14:11;102369.34;;;17.66;61.31
23281;BME280;11809;56.390;-3.266;2023-05-23T01:16:45;102377.34;;;17.65;61.30
23281;BME280;11809;56.390;-3.266;2023-05-23T01:21:42;102366.88;;;17.62;61.43
23281;BME280;11809;56.390;-3.266;2023-05-23T01:29:25;102359.81;;;17.61;61.22
23281;BME280;11809;56.390;-3.266;2023-05-23T01:31:54;102351.06;;;17.59;61.51
23281;BME280;11809;56.390;-3.266;2023-05-23T01:34:23;102356.38;;;17.59;61.34
23281;BME280;11809;56.390;-3.266;2023-05-23T01:36:53;102351.97;;;17.58;61.41
23281;BME280;11809;56.390;-3.266;2023-05-23T01:39:21;102353.84;;;17.55;61.45
23281;BME280;11809;56.390;-3.266;2023-05-23T01:41:49;102351.19;;;17.55;61.28
23281;BME280;11809;56.390;-3.266;2023-05-23T01:44:17;102358.34;;;17.53;61.49
23281;BME280;11809;56.390;-3.266;2023-05-23T01:46:46;102360.16;;;17.51;61.37
23281;BME280;11809;56.390;-3.266;2023-05-23T01:49:14;102362.81;;;17.53;61.48
23281;BME280;11809;56.390;-3.266;2023-05-23T01:51:42;102361.91;;;17.52;61.39
23281;BME280;11809;56.390;-3.266;2023-05-23T01:54:09;102362.81;;;17.51;61.37
23281;BME280;11809;56.390;-3.266;2023-05-23T01:56:37;102372.59;;;17.51;61.33
23281;BME280;11809;56.390;-3.266;2023-05-23T01:59:04;102366.41;;;17.50;61.30
23281;BME280;11809;56.390;-3.266;2023-05-23T02:01:31;102371.78;;;17.49;61.56
23281;BME280;11809;56.390;-3.266;2023-05-23T02:03:59;102382.41;;;17.49;61.34
23281;BME280;11809;56.390;-3.266;2023-05-23T02:06:26;102371.84;;;17.47;61.38
23281;BME280;11809;56.390;-3.266;2023-05-23T02:08:53;102370.19;;;17.45;61.42
23281;BME280;11809;56.390;-3.266;2023-05-23T02:11:19;102380.75;;;17.46;61.44
23281;BME280;11809;56.390;-3.266;2023-05-23T02:13:48;102365.75;;;17.45;61.30
23281;BME280;11809;56.390;-3.266;2023-05-23T02:16:15;102366.66;;;17.44;61.35
23281;BME280;11809;56.390;-3.266;2023-05-23T02:18:42;102358.69;;;17.44;61.32
23281;BME280;11809;56.390;-3.266;2023-05-23T02:21:11;102360.56;;;17.42;61.41
23281;BME280;11809;56.390;-3.266;2023-05-23T02:23:38;102355.28;;;17.41;61.30
23281;BME280;11809;56.390;-3.266;2023-05-23T02:26:05;102357.94;;;17.41;61.48
23281;BME280;11809;56.390;-3.266;2023-05-23T02:28:32;102354.44;;;17.40;61.30
23281;BME280;11809;56.390;-3.266;2023-05-23T02:30:59;102357.09;;;17.40;61.28
23281;BME280;11809;56.390;-3.266;2023-05-23T02:33:26;102350.97;;;17.38;61.34
23281;BME280;11809;56.390;-3.266;2023-05-23T02:35:53;102349.19;;;17.39;61.29
23281;BME280;11809;56.390;-3.266;2023-05-23T02:38:21;102356.34;;;17.37;61.40
23281;BME280;11809;56.390;-3.266;2023-05-23T02:40:47;102360.81;;;17.36;61.39
23281;BME280;11809;56.390;-3.266;2023-05-23T02:43:16;102349.38;;;17.34;61.33
23281;BME280;11809;56.390;-3.266;2023-05-23T02:45:43;102350.28;;;17.33;61.42
23281;BME280;11809;56.390;-3.266;2023-05-23T02:48:09;102340.53;;;17.34;61.35
23281;BME280;11809;56.390;-3.266;2023-05-23T02:50:37;102338.88;;;17.31;61.40
23281;BME280;11809;56.390;-3.266;2023-05-23T02:53:04;102338.88;;;17.31;61.43
23281;BME280;11809;56.390;-3.266;2023-05-23T02:55:31;102341.53;;;17.31;61.29
23281;BME280;11809;56.390;-3.266;2023-05-23T02:57:58;102335.34;;;17.31;61.34
23281;BME280;11809;56.390;-3.266;2023-05-23T03:00:26;102333.59;;;17.30;61.47
23281;BME280;11809;56.390;-3.266;2023-05-23T03:02:52;102332.75;;;17.29;61.38
23281;BME280;11809;56.390;-3.266;2023-05-23T03:05:19;102342.53;;;17.29;61.25
23281;BME280;11809;56.390;-3.266;2023-05-23T03:07:46;102344.22;;;17.30;61.27
23281;BME280;11809;56.390;-3.266;2023-05-23T03:10:13;102338.91;;;17.30;61.37
23281;BME280;11809;56.390;-3.266;2023-05-23T03:12:40;102333.59;;;17.30;61.24
23281;BME280;11809;56.390;-3.266;2023-05-23T03:15:08;102338.91;;;17.30;61.36
23281;BME280;11809;56.390;-3.266;2023-05-23T03:17:35;102340.72;;;17.29;61.42
23281;BME280;11809;56.390;-3.266;2023-05-23T03:20:02;102338.19;;;17.26;61.40
23281;BME280;11809;56.390;-3.266;2023-05-23T03:22:30;102342.63;;;17.26;61.40
23281;BME280;11809;56.390;-3.266;2023-05-23T03:24:57;102355.94;;;17.26;61.26
23281;BME280;11809;56.390;-3.266;2023-05-23T03:27:24;102355.84;;;17.27;61.26
23281;BME280;11809;56.390;-3.266;2023-05-23T03:29:51;102351.53;;;17.25;61.35
23281;BME280;11809;56.390;-3.266;2023-05-23T03:32:18;102348.06;;;17.23;61.24
23281;BME280;11809;56.390;-3.266;2023-05-23T03:34:45;102345.50;;;17.21;61.29
23281;BME280;11809;56.390;-3.266;2023-05-23T03:37:12;102349.06;;;17.20;61.42
23281;BME280;11809;56.390;-3.266;2023-05-23T03:39:39;102348.19;;;17.20;61.37
23281;BME280;11809;56.390;-3.266;2023-05-23T03:42:06;102346.47;;;17.19;61.19
23281;BME280;11809;56.390;-3.266;2023-05-23T03:44:33;102350.94;;;17.18;61.25
23281;BME280;11809;56.390;-3.266;2023-05-23T03:47:00;102348.31;;;17.17;61.32
23281;BME280;11809;56.390;-3.266;2023-05-23T03:49:27;102342.16;;;17.16;61.37
23281;BME280;11809;56.390;-3.266;2023-05-23T03:51:54;102343.94;;;17.16;61.39
23281;BME280;11809;56.390;-3.266;2023-05-23T03:54:21;102340.19;;;17.21;61.20
23281;BME280;11809;56.390;-3.266;2023-05-23T03:56:48;102339.31;;;17.21;61.34
23281;BME280;11809;56.390;-3.266;2023-05-23T03:59:15;102337.56;;;17.20;61.21
23281;BME280;11809;56.390;-3.266;2023-05-23T04:01:42;102339.44;;;17.18;61.27
23281;BME280;11809;56.390;-3.266;2023-05-23T04:04:09;102336.84;;;17.16;61.21
23281;BME280;11809;56.390;-3.266;2023-05-23T04:06:36;102334.22;;;17.15;61.28
23281;BME280;11809;56.390;-3.266;2023-05-23T04:09:03;102337.84;;;17.14;61.21
23281;BME280;11809;56.390;-3.266;2023-05-23T04:11:32;102330.81;;;17.11;61.20
23281;BME280;11809;56.390;-3.266;2023-05-23T04:13:58;102330.91;;;17.10;61.25
23281;BME280;11809;56.390;-3.266;2023-05-23T04:16:27;102330.03;;;17.09;61.22
23281;BME280;11809;56.390;-3.266;2023-05-23T04:18:58;102325.59;;;17.10;61.33
23281;BME280;11809;56.390;-3.266;2023-05-23T04:21:27;102320.34;;;17.08;61.33
23281;BME280;11809;56.390;-3.266;2023-05-23T04:23:54;102323.00;;;17.08;61.30
23281;BME280;11809;56.390;-3.266;2023-05-23T04:26:21;102335.34;;;17.09;61.28
23281;BME280;11809;56.390;-3.266;2023-05-23T04:28:49;102341.09;;;17.20;61.47
23281;BME280;11809;56.390;-3.266;2023-05-23T04:31:19;102339.34;;;17.19;61.09
23281;BME280;11809;56.390;-3.266;2023-05-23T04:33:47;102341.09;;;17.20;61.16
23281;BME280;11809;56.390;-3.266;2023-05-23T04:36:14;102326.78;;;17.24;60.90
23281;BME280;11809;56.390;-3.266;2023-05-23T04:38:41;102332.75;;;17.29;60.75
23281;BME280;11809;56.390;-3.266;2023-05-23T04:41:08;102323.84;;;17.30;60.80
23281;BME280;11809;56.390;-3.266;2023-05-23T04:43:38;102326.50;;;17.30;60.59
23281;BME280;11809;56.390;-3.266;2023-05-23T04:46:08;102330.91;;;17.31;60.45
23281;BME280;11809;56.390;-3.266;2023-05-23T04:48:35;102328.25;;;17.31;60.50
23281;BME280;11809;56.390;-3.266;2023-05-23T04:51:04;102326.50;;;17.30;60.53
23281;BME280;11809;56.390;-3.266;2023-05-23T04:53:34;102331.03;;;17.28;60.48
23281;BME280;11809;56.390;-3.266;2023-05-23T04:56:02;102329.34;;;17.26;60.46
23281;BME280;11809;56.390;-3.266;2023-05-23T04:58:29;102330.22;;;17.26;60.63
23281;BME280;11809;56.390;-3.266;2023-05-23T05:00:57;102336.25;;;17.30;60.48
23281;BME280;11809;56.390;-3.266;2023-05-23T05:03:24;102335.59;;;17.25;60.57
23281;BME280;11809;56.390;-3.266;2023-05-23T05:05:52;102334.00;;;17.21;60.55
23281;BME280;11809;56.390;-3.266;2023-05-23T05:08:19;102328.16;;;17.11;60.91
23281;BME280;11809;56.390;-3.266;2023-05-23T05:10:46;102330.09;;;17.08;60.97
23281;BME280;11809;56.390;-3.266;2023-05-23T05:13:13;102329.22;;;17.07;60.88
23281;BME280;11809;56.390;-3.266;2023-05-23T05:15:40;102323.13;;;17.05;61.11
23281;BME280;11809;56.390;-3.266;2023-05-23T05:18:08;102322.19;;;17.06;61.27
23281;BME280;11809;56.390;-3.266;2023-05-23T05:20:37;102323.91;;;17.07;61.11
23281;BME280;11809;56.390;-3.266;2023-05-23T05:23:05;102322.13;;;17.08;60.98
23281;BME280;11809;56.390;-3.266;2023-05-23T05:25:32;102318.53;;;17.09;61.00
23281;BME280;11809;56.390;-3.266;2023-05-23T05:28:01;102319.41;;;17.09;61.05
23281;BME280;11809;56.390;-3.266;2023-05-23T05:30:34;102322.84;;;17.11;61.09
23281;BME280;11809;56.390;-3.266;2023-05-23T05:33:02;102326.47;;;17.10;61.08
23281;BME280;11809;56.390;-3.266;2023-05-23T05:35:33;102319.53;;;17.06;61.09
23281;BME280;11809;56.390;-3.266;2023-05-23T05:38:00;102329.16;;;17.09;61.05
23281;BME280;11809;56.390;-3.266;2023-05-23T05:40:28;102330.16;;;17.06;61.06
23281;BME280;11809;56.390;-3.266;2023-05-23T05:42:55;102327.66;;;17.03;61.20
23281;BME280;11809;56.390;-3.266;2023-05-23T05:45:22;102325.03;;;17.02;61.12
23281;BME280;11809;56.390;-3.266;2023-05-23T05:47:49;102318.06;;;16.99;61.20
23281;BME280;11809;56.390;-3.266;2023-05-23T05:50:16;102320.59;;;17.02;61.17
23281;BME280;11809;56.390;-3.266;2023-05-23T05:52:43;102325.09;;;17.00;61.21
23281;BME280;11809;56.390;-3.266;2023-05-23T05:55:10;102319.78;;;17.00;61.19
23281;BME280;11809;56.390;-3.266;2023-05-23T05:57:37;102316.31;;;16.98;61.10
23281;BME280;11809;56.390;-3.266;2023-05-23T06:00:09;102325.16;;;16.98;61.33
23281;BME280;11809;56.390;-3.266;2023-05-23T06:02:40;102319.91;;;16.97;61.29
23281;BME280;11809;56.390;-3.266;2023-05-23T06:05:13;102323.38;;;16.99;61.17
23281;BME280;11809;56.390;-3.266;2023-05-23T06:07:42;102325.09;;;17.00;61.21
23281;BME280;11809;56.390;-3.266;2023-05-23T06:10:09;102325.09;;;17.00;61.34
23281;BME280;11809;56.390;-3.266;2023-05-23T06:12:39;102328.56;;;17.02;60.86
23281;BME280;11809;56.390;-3.266;2023-05-23T06:15:06;102320.47;;;16.83;57.15
23281;BME280;11809;56.390;-3.266;2023-05-23T06:17:34;102326.06;;;16.76;55.70
23281;BME280;11809;56.390;-3.266;2023-05-23T06:20:02;102324.81;;;16.63;55.28
23281;BME280;11809;56.390;-3.266;2023-05-23T06:22:30;102319.75;;;16.57;55.27
23281;BME280;11809;56.390;-3.266;2023-05-23T06:24:57;102313.03;;;16.47;54.88
23281;BME280;11809;56.390;-3.266;2023-05-23T06:27:24;102317.09;;;16.57;56.49
23281;BME280;11809;56.390;-3.266;2023-05-23T06:29:51;102313.16;;;16.67;57.66
23281;BME280;11809;56.390;-3.266;2023-05-23T06:32:18;102315.50;;;16.74;57.98
23281;BME280;11809;56.390;-3.266;2023-05-23T06:34:45;102315.47;;;16.76;58.09
23281;BME280;11809;56.390;-3.266;2023-05-23T06:37:12;102313.59;;;16.78;58.65
23281;BME280;11809;56.390;-3.266;2023-05-23T06:39:39;102318.78;;;16.81;58.71
23281;BME280;11809;56.390;-3.266;2023-05-23T06:42:06;102309.03;;;16.81;58.76
23281;BME280;11809;56.390;-3.266;2023-05-23T06:44:33;102316.06;;;16.82;58.81
23281;BME280;11809;56.390;-3.266;2023-05-23T06:47:00;102311.50;;;16.86;58.92
23281;BME280;11809;56.390;-3.266;2023-05-23T06:49:27;102321.22;;;16.87;59.15
23281;BME280;11809;56.390;-3.266;2023-05-23T06:51:54;102316.63;;;16.90;59.81
23281;BME280;11809;56.390;-3.266;2023-05-23T06:54:21;102316.59;;;16.92;59.57
23281;BME280;11809;56.390;-3.266;2023-05-23T06:56:48;102316.47;;;16.95;59.86
23281;BME280;11809;56.390;-3.266;2023-05-23T06:59:15;102320.72;;;16.99;60.15
23281;BME280;11809;56.390;-3.266;2023-05-23T07:01:42;102313.53;;;17.01;60.32
23281;BME280;11809;56.390;-3.266;2023-05-23T07:04:09;102311.50;;;17.08;60.34
23281;BME280;11809;56.390;-3.266;2023-05-23T07:06:37;102310.53;;;17.10;60.98
23281;BME280;11809;56.390;-3.266;2023-05-23T07:09:05;102307.66;;;17.15;61.49
23281;BME280;11809;56.390;-3.266;2023-05-23T07:11:32;102309.22;;;17.20;61.41
23281;BME280;11809;56.390;-3.266;2023-05-23T07:14:01;102313.50;;;17.24;61.59
23281;BME280;11809;56.390;-3.266;2023-05-23T07:16:28;102315.06;;;17.28;61.68
23281;BME280;11809;56.390;-3.266;2023-05-23T07:18:55;102312.34;;;17.30;62.05
23281;BME280;11809;56.390;-3.266;2023-05-23T07:21:22;102315.00;;;17.30;60.93
23281;BME280;11809;56.390;-3.266;2023-05-23T07:23:49;102313.22;;;17.30;61.16
23281;BME280;11809;56.390;-3.266;2023-05-23T07:26:16;102310.38;;;17.35;61.21
23281;BME280;11809;56.390;-3.266;2023-05-23T07:28:43;102310.38;;;17.35;61.36
23281;BME280;11809;56.390;-3.266;2023-05-23T07:31:10;102316.53;;;17.35;61.38
23281;BME280;11809;56.390;-3.266;2023-05-23T07:33:37;102312.97;;;17.36;61.63
23281;BME280;11809;56.390;-3.266;2023-05-23T07:36:04;102298.75;;;17.37;61.49
23281;BME280;11809;56.390;-3.266;2023-05-23T07:38:32;102295.16;;;17.38;61.43
23281;BME280;11809;56.390;-3.266;2023-05-23T07:40:59;102296.78;;;17.42;61.50
23281;BME280;11809;56.390;-3.266;2023-05-23T07:43:36;102299.31;;;17.45;61.34
23281;BME280;11809;56.390;-3.266;2023-05-23T07:46:03;102306.41;;;17.45;61.10
23281;BME280;11809;56.390;-3.266;2023-05-23T07:48:30;102309.72;;;17.50;61.12
23281;BME280;11809;56.390;-3.266;2023-05-23T07:50:57;102307.00;;;17.51;60.98
23281;BME280;11809;56.390;-3.266;2023-05-23T07:53:24;102304.34;;;17.51;61.06
23281;BME280;11809;56.390;-3.266;2023-05-23T07:55:51;102304.19;;;17.56;61.08
23281;BME280;11809;56.390;-3.266;2023-05-23T07:58:19;102304.03;;;17.59;60.98
23281;BME280;11809;56.390;-3.266;2023-05-23T08:00:45;102302.25;;;17.60;61.11
23281;BME280;11809;56.390;-3.266;2023-05-23T08:03:13;102303.91;;;17.62;61.19
23281;BME280;11809;56.390;-3.266;2023-05-23T08:05:40;102311.84;;;17.64;61.10
23281;BME280;11809;56.390;-3.266;2023-05-23T08:08:07;102314.38;;;17.67;61.16
23281;BME280;11809;56.390;-3.266;2023-05-23T08:10:34;102316.94;;;17.68;61.14
23281;BME280;11809;56.390;-3.266;2023-05-23T08:13:01;102313.28;;;17.71;61.27
23281;BME280;11809;56.390;-3.266;2023-05-23T08:15:32;102302.53;;;17.74;61.10
23281;BME280;11809;56.390;-3.266;2023-05-23T08:17:59;102303.25;;;17.77;61.00
23281;BME280;11809;56.390;-3.266;2023-05-23T08:20:27;102296.59;;;17.87;60.69
23281;BME280;11809;56.390;-3.266;2023-05-23T08:22:58;102294.34;;;17.98;60.37
23281;BME280;11809;56.390;-3.266;2023-05-23T08:25:26;102291.97;;;18.11;60.11
23281;BME280;11809;56.390;-3.266;2023-05-23T08:27:59;102307.53;;;18.20;59.81
23281;BME280;11809;56.390;-3.266;2023-05-23T08:30:27;102295.81;;;18.24;60.14
23281;BME280;11809;56.390;-3.266;2023-05-23T08:32:54;102290.47;;;18.24;60.00
23281;BME280;11809;56.390;-3.266;2023-05-23T08:35:22;102295.81;;;18.24;60.14
23281;BME280;11809;56.390;-3.266;2023-05-23T08:37:49;102294.88;;;18.25;60.09
23281;BME280;11809;56.390;-3.266;2023-05-23T08:40:21;102289.25;;;18.31;59.95
23281;BME280;11809;56.390;-3.266;2023-05-23T08:42:48;102281.44;;;18.28;60.07
23281;BME280;11809;56.390;-3.266;2023-05-23T08:45:16;102282.38;;;18.27;60.27
23281;BME280;11809;56.390;-3.266;2023-05-23T08:47:44;102273.47;;;18.28;60.22
23281;BME280;11809;56.390;-3.266;2023-05-23T08:50:12;102275.16;;;18.29;60.35
23281;BME280;11809;56.390;-3.266;2023-05-23T08:55:10;102261.81;;;18.31;60.47
23281;BME280;11809;56.390;-3.266;2023-05-23T08:57:37;102250.16;;;18.33;60.29
23281;BME280;11809;56.390;-3.266;2023-05-23T09:00:12;102248.28;;;18.35;60.04
23281;BME280;11809;56.390;-3.266;2023-05-23T09:02:42;102248.53;;;18.29;60.04
23281;BME280;11809;56.390;-3.266;2023-05-23T09:05:11;102234.31;;;18.30;60.10
23281;BME280;11809;56.390;-3.266;2023-05-23T09:07:38;102252.88;;;18.32;59.96
23281;BME280;11809;56.390;-3.266;2023-05-23T09:10:06;102249.34;;;18.31;59.97
23281;BME280;11809;56.390;-3.266;2023-05-23T09:12:34;102250.16;;;18.33;59.63
23281;BME280;11809;56.390;-3.266;2023-05-23T09:15:03;102251.84;;;18.34;60.09
23281;BME280;11809;56.390;-3.266;2023-05-23T09:17:33;102262.44;;;18.36;60.15
23281;BME280;11809;56.390;-3.266;2023-05-23T09:20:12;102248.28;;;18.35;60.47
23281;BME280;11809;56.390;-3.266;2023-05-23T09:22:40;102252.72;;;18.35;60.12
23281;BME280;11809;56.390;-3.266;2023-05-23T09:25:11;102244.22;;;18.45;60.43
23281;BME280;11809;56.390;-3.266;2023-05-23T09:27:38;102245.38;;;18.40;59.91
23281;BME280;11809;56.390;-3.266;2023-05-23T09:30:06;102241.78;;;18.41;59.69
23281;BME280;11809;56.390;-3.266;2023-05-23T09:32:33;102237.47;;;18.38;59.85
23281;BME280;11809;56.390;-3.266;2023-05-23T09:35:02;102228.53;;;18.39;59.87
23281;BME280;11809;56.390;-3.266;2023-05-23T09:37:33;102226.84;;;18.38;59.87
23281;BME280;11809;56.390;-3.266;2023-05-23T09:40:01;102226.69;;;18.41;60.05
23281;BME280;11809;56.390;-3.266;2023-05-23T09:42:32;102226.69;;;18.41;60.07
23281;BME280;11809;56.390;-3.266;2023-05-23T09:45:00;102223.06;;;18.42;59.61
23281;BME280;11809;56.390;-3.266;2023-05-23T09:47:29;102209.84;;;18.41;59.96
23281;BME280;11809;56.390;-3.266;2023-05-23T09:49:57;102220.16;;;18.48;59.87
23281;BME280;11809;56.390;-3.266;2023-05-23T09:52:24;102223.59;;;18.50;59.50
23281;BME280;11809;56.390;-3.266;2023-05-23T09:54:52;102220.94;;;18.50;59.68
23281;BME280;11809;56.390;-3.266;2023-05-23T09:57:21;102223.59;;;18.50;60.13
23281;BME280;11809;56.390;-3.266;2023-05-23T09:59:52;102216.63;;;18.48;56.14
23281;BME280;11809;56.390;-3.266;2023-05-23T10:02:44;102222.28;;;18.40;54.14
23281;BME280;11809;56.390;-3.266;2023-05-23T10:05:09;102215.47;;;18.35;54.04
23281;BME280;11809;56.390;-3.266;2023-05-23T10:07:41;102217.25;;;18.34;53.38
23281;BME280;11809;56.390;-3.266;2023-05-23T10:10:09;102208.69;;;18.46;54.81
23281;BME280;11809;56.390;-3.266;2023-05-23T10:12:40;102212.03;;;18.51;53.97
23281;BME280;11809;56.390;-3.266;2023-05-23T10:15:09;102207.25;;;18.58;54.57
23281;BME280;11809;56.390;-3.266;2023-05-23T10:20:21;102208.75;;;18.63;57.05
23281;BME280;11809;56.390;-3.266;2023-05-23T10:22:51;102197.97;;;18.66;57.14
23281;BME280;11809;56.390;-3.266;2023-05-23T10:25:18;102191.72;;;18.67;57.50
23281;BME280;11809;56.390;-3.266;2023-05-23T10:27:45;102187.00;;;18.72;57.42
23281;BME280;11809;56.390;-3.266;2023-05-23T10:30:16;102195.78;;;18.74;57.98
23281;BME280;11809;56.390;-3.266;2023-05-23T10:32:43;102190.47;;;18.74;57.99
23281;BME280;11809;56.390;-3.266;2023-05-23T10:35:28;102189.53;;;18.75;58.19
23281;BME280;11809;56.390;-3.266;2023-05-23T10:38:00;102184.19;;;18.75;58.16
23281;BME280;11809;56.390;-3.266;2023-05-23T10:45:39;102192.72;;;18.82;58.48
23281;BME280;11809;56.390;-3.266;2023-05-23T10:48:21;102173.22;;;18.82;58.51
23281;BME280;11809;56.390;-3.266;2023-05-23T10:51:07;102165.22;;;18.82;58.51
23281;BME280;11809;56.390;-3.266;2023-05-23T10:53:38;102164.44;;;18.80;58.63
23281;BME280;11809;56.390;-3.266;2023-05-23T10:56:06;102167.06;;;18.81;58.68
23281;BME280;11809;56.390;-3.266;2023-05-23T10:58:34;102160.91;;;18.79;58.91
23281;BME280;11809;56.390;-3.266;2023-05-23T11:01:04;102154.81;;;18.77;58.77
23281;BME280;11809;56.390;-3.266;2023-05-23T11:03:36;102158.19;;;18.81;58.68
23281;BME280;11809;56.390;-3.266;2023-05-23T11:06:04;102151.06;;;18.81;58.84
23281;BME280;11809;56.390;-3.266;2023-05-23T11:08:37;102152.94;;;18.79;58.70
23281;BME280;11809;56.390;-3.266;2023-05-23T11:11:14;102161.78;;;18.80;58.57
23281;BME280;11809;56.390;-3.266;2023-05-23T11:13:54;102148.47;;;18.80;58.84
23281;BME280;11809;56.390;-3.266;2023-05-23T11:21:45;102141.25;;;18.82;58.81
23281;BME280;11809;56.390;-3.266;2023-05-23T11:24:15;102127.94;;;18.82;59.04
23281;BME280;11809;56.390;-3.266;2023-05-23T11:26:51;102130.78;;;18.79;58.87
23281;BME280;11809;56.390;-3.266;2023-05-23T11:29:21;102133.50;;;18.77;58.92
23281;BME280;11809;56.390;-3.266;2023-05-23T11:31:48;102126.28;;;18.79;59.06
23281;BME280;11809;56.390;-3.266;2023-05-23T11:34:19;102130.28;;;18.88;58.51
23281;BME280;11809;56.390;-3.266;2023-05-23T11:36:51;102118.25;;;18.81;58.61
23281;BME280;11809;56.390;-3.266;2023-05-23T11:39:23;102118.97;;;18.84;59.17
23281;BME280;11809;56.390;-3.266;2023-05-23T11:42:00;102133.13;;;18.85;58.79
23281;BME280;11809;56.390;-3.266;2023-05-23T11:44:29;102121.44;;;18.87;59.15
23281;BME280;11809;56.390;-3.266;2023-05-23T11:47:03;102121.38;;;18.89;59.39
23281;BME280;11809;56.390;-3.266;2023-05-23T11:49:36;102126.72;;;18.89;59.56
23281;BME280;11809;56.390;-3.266;2023-05-23T11:52:06;102131.00;;;18.91;59.76
23281;BME280;11809;56.390;-3.266;2023-05-23T11:54:33;102123.88;;;18.92;59.76
23281;BME280;11809;56.390;-3.266;2023-05-23T11:57:00;102113.06;;;18.95;60.06
23281;BME280;11809;56.390;-3.266;2023-05-23T11:59:28;102118.47;;;18.93;58.66
23281;BME280;11809;56.390;-3.266;2023-05-23T12:01:55;102118.41;;;18.95;58.37
23281;BME280;11809;56.390;-3.266;2023-05-23T12:04:23;102113.00;;;18.96;58.16
23281;BME280;11809;56.390;-3.266;2023-05-23T12:06:51;102118.31;;;18.96;57.07
23281;BME280;11809;56.390;-3.266;2023-05-23T12:09:19;102119.19;;;18.97;56.25
23281;BME280;11809;56.390;-3.266;2023-05-23T12:11:47;102110.41;;;18.95;56.01
23281;BME280;11809;56.390;-3.266;2023-05-23T12:14:15;102114.00;;;18.94;56.24
23281;BME280;11809;56.390;-3.266;2023-05-23T12:16:43;102111.19;;;18.97;55.67
23281;BME280;11809;56.390;-3.266;2023-05-23T12:19:12;102105.88;;;18.97;55.37
23281;BME280;11809;56.390;-3.266;2023-05-23T12:21:46;102100.28;;;19.01;55.75
23281;BME280;11809;56.390;-3.266;2023-05-23T12:24:20;102094.91;;;19.03;55.27
23281;BME280;11809;56.390;-3.266;2023-05-23T12:29:17;102090.34;;;19.05;53.88
23281;BME280;11809;56.390;-3.266;2023-05-23T12:31:47;102093.78;;;19.07;53.82
23281;BME280;11809;56.390;-3.266;2023-05-23T12:34:14;102090.97;;;19.10;54.27
23281;BME280;11809;56.390;-3.266;2023-05-23T12:36:41;102087.50;;;19.08;54.68
23281;BME280;11809;56.390;-3.266;2023-05-23T12:39:15;102103.41;;;19.09;54.29
23281;BME280;11809;56.390;-3.266;2023-05-23T12:41:44;102099.97;;;19.07;53.58
23281;BME280;11809;56.390;-3.266;2023-05-23T12:44:13;102102.69;;;19.06;53.69
23281;BME280;11809;56.390;-3.266;2023-05-23T12:46:41;102101.88;;;19.05;54.59
23281;BME280;11809;56.390;-3.266;2023-05-23T12:49:08;102109.31;;;18.99;54.94
23281;BME280;11809;56.390;-3.266;2023-05-23T12:51:35;102111.34;;;18.94;53.37
23281;BME280;11809;56.390;-3.266;2023-05-23T12:54:02;102110.72;;;18.89;52.69
23281;BME280;11809;56.390;-3.266;2023-05-23T12:56:30;102109.75;;;18.90;52.29
23281;BME280;11809;56.390;-3.266;2023-05-23T12:58:57;102111.66;;;18.88;52.15
23281;BME280;11809;56.390;-3.266;2023-05-23T13:01:24;102113.28;;;18.90;52.94
23281;BME280;11809;56.390;-3.266;2023-05-23T13:03:51;102108.84;;;18.91;52.66
23281;BME280;11809;56.390;-3.266;2023-05-23T13:06:18;102107.81;;;18.93;53.77
23281;BME280;11809;56.390;-3.266;2023-05-23T13:08:45;102106.25;;;18.89;53.10
23281;BME280;11809;56.390;-3.266;2023-05-23T13:11:13;102107.44;;;18.84;52.40
23281;BME280;11809;56.390;-3.266;2023-05-23T13:13:40;102107.59;;;18.81;51.69